JET747 DAAG-DTTA
Flight info
| Callsign | JET747 |
|---|---|
| Flight time | 1h 6m |
| Altitude | 37000 |
| Route | BJA1A BJA UA411 MORJA UM978 KEMIR UA411 TUC DCT |
| Aircraft | A20N/M-SDE2E3FGHIRWXY/LB1 |
Departure
| Time | 2026-05-08 10:11 |
|---|---|
| Airport | Houari Boumediene Airport (DAAG) |
Arrival
| Time | 2026-05-08 11:17 |
|---|---|
| Airport | Tunis Carthage International Airport (DTTA) |
| Time | Latitude | Longitude | Altitude | Speed | Heading |
|---|---|---|---|---|---|
| 2026-05-08 10:11 | 36.65187 | 3.13858 | 6000 ft | 269 kts | 18° |
| 2026-05-08 10:11 | 36.67030 | 3.13988 | 5998 ft | 268 kts | 345° |
| 2026-05-08 10:11 | 36.68807 | 3.13224 | 6045 ft | 271 kts | 336° |
| 2026-05-08 10:12 | 36.70496 | 3.12222 | 6053 ft | 272 kts | 328° |
| 2026-05-08 10:12 | 36.71754 | 3.10523 | 6002 ft | 268 kts | 293° |
| 2026-05-08 10:12 | 36.72034 | 3.09036 | 6000 ft | 267 kts | 269° |
| 2026-05-08 10:12 | 36.71110 | 3.06247 | 5999 ft | 267 kts | 222° |
| 2026-05-08 10:13 | 36.70066 | 3.05436 | 6000 ft | 268 kts | 199° |
| 2026-05-08 10:13 | 36.68217 | 3.05286 | 6003 ft | 269 kts | 171° |
| 2026-05-08 10:13 | 36.66420 | 3.05885 | 6000 ft | 272 kts | 158° |
| 2026-05-08 10:13 | 36.64800 | 3.07097 | 6001 ft | 273 kts | 135° |
| 2026-05-08 10:14 | 36.63724 | 3.09835 | 6001 ft | 271 kts | 92° |
| 2026-05-08 10:14 | 36.63894 | 3.11374 | 5999 ft | 270 kts | 68° |
| 2026-05-08 10:14 | 36.64851 | 3.13395 | 6001 ft | 272 kts | 56° |
| 2026-05-08 10:14 | 36.65595 | 3.15564 | 6006 ft | 274 kts | 76° |
| 2026-05-08 10:15 | 36.66133 | 3.17841 | 6000 ft | 274 kts | 70° |
| 2026-05-08 10:15 | 36.66488 | 3.20163 | 6004 ft | 274 kts | 91° |
| 2026-05-08 10:15 | 36.66373 | 3.22536 | 6001 ft | 274 kts | 94° |
| 2026-05-08 10:15 | 36.66229 | 3.24908 | 5998 ft | 275 kts | 94° |
| 2026-05-08 10:16 | 36.66095 | 3.27296 | 6000 ft | 275 kts | 93° |
| 2026-05-08 10:16 | 36.65983 | 3.29650 | 6001 ft | 275 kts | 93° |
| 2026-05-08 10:16 | 36.65886 | 3.32029 | 6000 ft | 275 kts | 92° |
| 2026-05-08 10:16 | 36.65799 | 3.34411 | 6002 ft | 275 kts | 92° |
| 2026-05-08 10:17 | 36.65720 | 3.36794 | 5997 ft | 275 kts | 92° |
| 2026-05-08 10:17 | 36.65643 | 3.39188 | 6002 ft | 275 kts | 92° |
| 2026-05-08 10:17 | 36.65570 | 3.41548 | 6001 ft | 275 kts | 92° |
| 2026-05-08 10:17 | 36.65497 | 3.43943 | 5997 ft | 275 kts | 92° |
| 2026-05-08 10:18 | 36.65423 | 3.46329 | 6004 ft | 276 kts | 92° |
| 2026-05-08 10:18 | 36.65350 | 3.48716 | 6002 ft | 275 kts | 92° |
| 2026-05-08 10:18 | 36.65279 | 3.51075 | 6000 ft | 275 kts | 92° |
| 2026-05-08 10:18 | 36.65205 | 3.53473 | 6003 ft | 276 kts | 92° |
| 2026-05-08 10:19 | 36.65132 | 3.55884 | 6366 ft | 279 kts | 92° |
| 2026-05-08 10:19 | 36.65062 | 3.58258 | 7334 ft | 280 kts | 91° |
| 2026-05-08 10:19 | 36.65097 | 3.60684 | 8410 ft | 281 kts | 87° |
| 2026-05-08 10:20 | 36.65318 | 3.65477 | 10252 ft | 290 kts | 86° |
| 2026-05-08 10:20 | 36.65414 | 3.67381 | 10652 ft | 305 kts | 86° |
| 2026-05-08 10:20 | 36.65548 | 3.70127 | 11129 ft | 325 kts | 86° |
| 2026-05-08 10:20 | 36.65680 | 3.72955 | 11862 ft | 334 kts | 86° |
| 2026-05-08 10:21 | 36.65814 | 3.75874 | 12705 ft | 340 kts | 86° |
| 2026-05-08 10:21 | 36.65951 | 3.78851 | 13543 ft | 345 kts | 86° |
| 2026-05-08 10:21 | 36.66088 | 3.81819 | 14362 ft | 350 kts | 86° |
| 2026-05-08 10:21 | 36.66229 | 3.84879 | 15183 ft | 355 kts | 86° |
| 2026-05-08 10:22 | 36.66372 | 3.87973 | 15997 ft | 359 kts | 86° |
| 2026-05-08 10:22 | 36.66514 | 3.91069 | 16771 ft | 363 kts | 86° |
| 2026-05-08 10:22 | 36.66660 | 3.94252 | 17544 ft | 367 kts | 86° |
| 2026-05-08 10:22 | 36.66804 | 3.97416 | 18269 ft | 371 kts | 86° |
| 2026-05-08 10:23 | 36.66952 | 4.00660 | 18964 ft | 375 kts | 86° |
| 2026-05-08 10:23 | 36.67097 | 4.03887 | 19629 ft | 379 kts | 86° |
| 2026-05-08 10:23 | 36.67246 | 4.07192 | 20281 ft | 383 kts | 86° |
| 2026-05-08 10:23 | 36.67395 | 4.10541 | 20933 ft | 387 kts | 86° |
| 2026-05-08 10:24 | 36.67542 | 4.13870 | 21568 ft | 390 kts | 86° |
| 2026-05-08 10:24 | 36.67692 | 4.17264 | 22186 ft | 394 kts | 87° |
| 2026-05-08 10:24 | 36.67842 | 4.20689 | 22769 ft | 397 kts | 87° |
| 2026-05-08 10:24 | 36.67993 | 4.24165 | 23334 ft | 401 kts | 87° |
| 2026-05-08 10:25 | 36.68143 | 4.27615 | 23872 ft | 404 kts | 87° |
| 2026-05-08 10:25 | 36.68295 | 4.31141 | 24381 ft | 408 kts | 87° |
| 2026-05-08 10:25 | 36.68447 | 4.34702 | 24885 ft | 411 kts | 87° |
| 2026-05-08 10:25 | 36.68580 | 4.37851 | 25320 ft | 414 kts | 87° |
| 2026-05-08 10:27 | 36.68652 | 4.39570 | 25547 ft | 415 kts | 87° |
| 2026-05-08 10:27 | 36.68804 | 4.43186 | 25992 ft | 419 kts | 87° |
| 2026-05-08 10:27 | 36.68956 | 4.46839 | 26393 ft | 423 kts | 87° |
| 2026-05-08 10:28 | 36.69107 | 4.50488 | 26774 ft | 427 kts | 87° |
| 2026-05-08 10:28 | 36.69260 | 4.54221 | 27165 ft | 430 kts | 87° |
| 2026-05-08 10:28 | 36.69411 | 4.57924 | 27546 ft | 433 kts | 87° |
| 2026-05-08 10:28 | 36.69563 | 4.61698 | 27895 ft | 436 kts | 87° |
| 2026-05-08 10:29 | 36.69715 | 4.65483 | 28225 ft | 439 kts | 87° |
| 2026-05-08 10:29 | 36.69864 | 4.69256 | 28589 ft | 441 kts | 87° |
| 2026-05-08 10:29 | 36.70015 | 4.73085 | 28968 ft | 443 kts | 87° |
| 2026-05-08 10:29 | 36.70165 | 4.76927 | 29328 ft | 445 kts | 87° |
| 2026-05-08 10:30 | 36.70315 | 4.80796 | 29717 ft | 446 kts | 87° |
| 2026-05-08 10:30 | 36.70463 | 4.84656 | 30089 ft | 447 kts | 87° |
| 2026-05-08 10:30 | 36.70611 | 4.88528 | 30430 ft | 449 kts | 87° |
| 2026-05-08 10:30 | 36.70758 | 4.92422 | 30747 ft | 451 kts | 87° |
| 2026-05-08 10:31 | 36.70906 | 4.96351 | 31050 ft | 453 kts | 87° |
| 2026-05-08 10:31 | 36.71051 | 5.00271 | 31431 ft | 453 kts | 87° |
| 2026-05-08 10:31 | 36.71194 | 5.04146 | 31853 ft | 451 kts | 87° |
| 2026-05-08 10:31 | 36.71379 | 5.08041 | 32257 ft | 449 kts | 85° |
| 2026-05-08 10:32 | 36.71698 | 5.11908 | 32639 ft | 449 kts | 83° |
| 2026-05-08 10:32 | 36.72081 | 5.15770 | 32989 ft | 448 kts | 82° |
| 2026-05-08 10:32 | 36.72496 | 5.19611 | 33331 ft | 447 kts | 82° |
| 2026-05-08 10:32 | 36.72928 | 5.23474 | 33664 ft | 447 kts | 82° |
| 2026-05-08 10:33 | 36.73353 | 5.27266 | 33983 ft | 446 kts | 82° |
| 2026-05-08 10:33 | 36.73779 | 5.31098 | 34293 ft | 445 kts | 82° |
| 2026-05-08 10:33 | 36.74199 | 5.34930 | 34597 ft | 445 kts | 82° |
| 2026-05-08 10:33 | 36.74612 | 5.38747 | 34890 ft | 444 kts | 82° |
| 2026-05-08 10:34 | 36.75019 | 5.42564 | 35175 ft | 444 kts | 82° |
| 2026-05-08 10:34 | 36.75425 | 5.46403 | 35453 ft | 443 kts | 82° |
| 2026-05-08 10:34 | 36.75819 | 5.50164 | 35717 ft | 443 kts | 82° |
| 2026-05-08 10:34 | 36.76219 | 5.53994 | 35974 ft | 442 kts | 82° |
| 2026-05-08 10:35 | 36.76618 | 5.57823 | 36219 ft | 442 kts | 82° |
| 2026-05-08 10:35 | 36.77012 | 5.61624 | 36449 ft | 442 kts | 83° |
| 2026-05-08 10:35 | 36.77405 | 5.65428 | 36670 ft | 442 kts | 83° |
| 2026-05-08 10:35 | 36.77794 | 5.69205 | 36880 ft | 443 kts | 83° |
| 2026-05-08 10:36 | 36.78187 | 5.73022 | 36989 ft | 443 kts | 83° |
| 2026-05-08 10:36 | 36.78964 | 5.80618 | 36999 ft | 437 kts | 83° |
| 2026-05-08 10:37 | 36.79645 | 5.88152 | 37001 ft | 436 kts | 86° |
| 2026-05-08 10:37 | 36.79987 | 5.95698 | 37000 ft | 436 kts | 87° |
| 2026-05-08 10:38 | 36.80213 | 6.03239 | 37000 ft | 437 kts | 88° |
| 2026-05-08 10:38 | 36.80395 | 6.10838 | 37001 ft | 439 kts | 88° |
| 2026-05-08 10:39 | 36.80567 | 6.18405 | 37000 ft | 436 kts | 88° |
| 2026-05-08 10:39 | 36.80739 | 6.25992 | 37000 ft | 436 kts | 88° |
| 2026-05-08 10:40 | 36.80910 | 6.33596 | 37000 ft | 437 kts | 88° |
| 2026-05-08 10:40 | 36.81077 | 6.41134 | 36994 ft | 430 kts | 88° |
| 2026-05-08 10:41 | 36.81238 | 6.48540 | 37005 ft | 431 kts | 88° |
| 2026-05-08 10:41 | 36.81393 | 6.56084 | 37001 ft | 438 kts | 88° |
| 2026-05-08 10:42 | 36.81546 | 6.63688 | 36999 ft | 437 kts | 88° |
| 2026-05-08 10:42 | 36.81694 | 6.71274 | 37000 ft | 437 kts | 89° |
| 2026-05-08 10:43 | 36.81836 | 6.78837 | 37000 ft | 438 kts | 89° |
| 2026-05-08 10:43 | 36.81976 | 6.86438 | 36998 ft | 437 kts | 89° |
| 2026-05-08 10:44 | 36.82110 | 6.94021 | 37000 ft | 437 kts | 89° |
| 2026-05-08 10:44 | 36.82239 | 7.01597 | 37000 ft | 437 kts | 89° |
| 2026-05-08 10:45 | 36.82363 | 7.09178 | 37001 ft | 437 kts | 89° |
| 2026-05-08 10:45 | 36.82482 | 7.16768 | 36999 ft | 436 kts | 89° |
| 2026-05-08 10:46 | 36.82596 | 7.24320 | 37000 ft | 437 kts | 89° |
| 2026-05-08 10:46 | 36.82705 | 7.31867 | 37000 ft | 436 kts | 89° |
| 2026-05-08 10:47 | 36.82810 | 7.39470 | 37001 ft | 436 kts | 89° |
| 2026-05-08 10:47 | 36.82910 | 7.47012 | 37000 ft | 436 kts | 89° |
| 2026-05-08 10:48 | 36.83004 | 7.54553 | 37000 ft | 436 kts | 89° |
| 2026-05-08 10:48 | 36.83095 | 7.62145 | 37000 ft | 436 kts | 89° |
| 2026-05-08 10:49 | 36.83180 | 7.69718 | 37000 ft | 436 kts | 89° |
| 2026-05-08 10:49 | 36.83260 | 7.77239 | 37000 ft | 436 kts | 89° |
| 2026-05-08 10:50 | 36.83330 | 7.84817 | 37000 ft | 436 kts | 89° |
| 2026-05-08 10:50 | 36.83375 | 7.92398 | 37002 ft | 438 kts | 89° |
| 2026-05-08 10:51 | 36.83404 | 7.98754 | 37000 ft | 441 kts | 90° |
| 2026-05-08 10:51 | 36.83440 | 8.07669 | 37000 ft | 441 kts | 90° |
| 2026-05-08 10:52 | 36.83467 | 8.15317 | 36987 ft | 442 kts | 90° |
| 2026-05-08 10:52 | 36.83479 | 8.19177 | 36751 ft | 441 kts | 90° |
| 2026-05-08 10:52 | 36.83486 | 8.21709 | 36517 ft | 438 kts | 90° |
| 2026-05-08 10:52 | 36.83499 | 8.26738 | 35802 ft | 437 kts | 90° |
| 2026-05-08 10:53 | 36.83507 | 8.30565 | 35061 ft | 442 kts | 90° |
| 2026-05-08 10:53 | 36.83513 | 8.33116 | 34584 ft | 443 kts | 90° |
| 2026-05-08 10:53 | 36.83521 | 8.36978 | 33858 ft | 445 kts | 90° |
| 2026-05-08 10:53 | 36.83528 | 8.40865 | 33078 ft | 448 kts | 90° |
| 2026-05-08 10:54 | 36.83535 | 8.44781 | 32290 ft | 451 kts | 90° |
| 2026-05-08 10:54 | 36.83540 | 8.48694 | 31653 ft | 450 kts | 90° |
| 2026-05-08 10:54 | 36.83544 | 8.52588 | 31135 ft | 445 kts | 90° |
| 2026-05-08 10:54 | 36.83546 | 8.56404 | 30589 ft | 442 kts | 90° |
| 2026-05-08 10:55 | 36.83546 | 8.60238 | 30036 ft | 438 kts | 90° |
| 2026-05-08 10:55 | 36.83545 | 8.64038 | 29457 ft | 436 kts | 90° |
| 2026-05-08 10:55 | 36.83551 | 8.67820 | 28889 ft | 433 kts | 90° |
| 2026-05-08 10:55 | 36.83567 | 8.71534 | 28328 ft | 430 kts | 89° |
| 2026-05-08 10:56 | 36.83589 | 8.75277 | 27763 ft | 427 kts | 89° |
| 2026-05-08 10:56 | 36.83613 | 8.78979 | 27206 ft | 424 kts | 89° |
| 2026-05-08 10:56 | 36.83637 | 8.82608 | 26648 ft | 421 kts | 89° |
| 2026-05-08 10:56 | 36.83660 | 8.86261 | 26080 ft | 419 kts | 89° |
| 2026-05-08 10:57 | 36.83682 | 8.89886 | 25514 ft | 416 kts | 89° |
| 2026-05-08 10:57 | 36.83702 | 8.93500 | 24949 ft | 414 kts | 89° |
| 2026-05-08 10:57 | 36.83738 | 9.00645 | 23829 ft | 408 kts | 90° |
| 2026-05-08 10:58 | 36.83753 | 9.04138 | 23266 ft | 405 kts | 90° |
| 2026-05-08 10:58 | 36.83768 | 9.07654 | 22699 ft | 402 kts | 90° |
| 2026-05-08 10:58 | 36.83781 | 9.11130 | 22137 ft | 399 kts | 90° |
| 2026-05-08 10:58 | 36.83793 | 9.14587 | 21579 ft | 396 kts | 90° |
| 2026-05-08 10:59 | 36.83803 | 9.17979 | 21030 ft | 392 kts | 90° |
| 2026-05-08 10:59 | 36.83813 | 9.21381 | 20481 ft | 389 kts | 90° |
| 2026-05-08 10:59 | 36.83822 | 9.24753 | 19933 ft | 385 kts | 90° |
| 2026-05-08 10:59 | 36.83829 | 9.28049 | 19377 ft | 382 kts | 90° |
| 2026-05-08 11:00 | 36.83836 | 9.31365 | 18842 ft | 378 kts | 90° |
| 2026-05-08 11:00 | 36.83841 | 9.34601 | 18305 ft | 373 kts | 90° |
| 2026-05-08 11:00 | 36.83845 | 9.37807 | 17776 ft | 363 kts | 90° |
| 2026-05-08 11:00 | 36.83848 | 9.40938 | 17300 ft | 354 kts | 90° |
| 2026-05-08 11:01 | 36.83866 | 9.43995 | 16966 ft | 349 kts | 89° |
| 2026-05-08 11:01 | 36.83903 | 9.46996 | 16288 ft | 349 kts | 89° |
| 2026-05-08 11:01 | 36.83953 | 9.50009 | 15729 ft | 342 kts | 89° |
| 2026-05-08 11:01 | 36.84008 | 9.52924 | 15242 ft | 335 kts | 89° |
| 2026-05-08 11:02 | 36.84065 | 9.55818 | 14758 ft | 329 kts | 88° |
| 2026-05-08 11:02 | 36.84175 | 9.61431 | 13814 ft | 319 kts | 89° |
| 2026-05-08 11:02 | 36.84228 | 9.64181 | 13352 ft | 314 kts | 89° |
| 2026-05-08 11:03 | 36.84279 | 9.66897 | 12899 ft | 310 kts | 89° |
| 2026-05-08 11:03 | 36.84329 | 9.69572 | 12445 ft | 306 kts | 89° |
| 2026-05-08 11:03 | 36.84376 | 9.72214 | 12000 ft | 303 kts | 89° |
| 2026-05-08 11:03 | 36.84423 | 9.74837 | 11558 ft | 302 kts | 89° |
| 2026-05-08 11:04 | 36.84469 | 9.77455 | 11126 ft | 300 kts | 89° |
| 2026-05-08 11:04 | 36.84514 | 9.80051 | 10677 ft | 298 kts | 89° |
| 2026-05-08 11:04 | 36.84559 | 9.82622 | 10242 ft | 295 kts | 89° |
| 2026-05-08 11:04 | 36.84602 | 9.85156 | 9964 ft | 285 kts | 89° |
| 2026-05-08 11:05 | 36.84642 | 9.87551 | 9814 ft | 272 kts | 89° |
| 2026-05-08 11:05 | 36.84680 | 9.89891 | 9497 ft | 268 kts | 89° |
| 2026-05-08 11:05 | 36.84717 | 9.92218 | 9121 ft | 267 kts | 89° |
| 2026-05-08 11:05 | 36.84754 | 9.94547 | 8750 ft | 267 kts | 89° |
| 2026-05-08 11:06 | 36.84790 | 9.96828 | 8388 ft | 265 kts | 89° |
| 2026-05-08 11:06 | 36.84826 | 9.99133 | 8022 ft | 264 kts | 89° |
| 2026-05-08 11:06 | 36.84861 | 10.01422 | 7656 ft | 262 kts | 89° |
| 2026-05-08 11:06 | 36.84896 | 10.03673 | 7296 ft | 260 kts | 89° |
| 2026-05-08 11:07 | 36.84930 | 10.05930 | 6940 ft | 259 kts | 89° |
| 2026-05-08 11:07 | 36.84964 | 10.08187 | 6580 ft | 258 kts | 89° |
| 2026-05-08 11:07 | 36.84998 | 10.10428 | 6227 ft | 257 kts | 89° |
| 2026-05-08 11:07 | 36.85031 | 10.12661 | 5867 ft | 256 kts | 89° |
| 2026-05-08 11:08 | 36.85063 | 10.14858 | 5517 ft | 254 kts | 89° |
| 2026-05-08 11:08 | 36.85096 | 10.17064 | 5162 ft | 253 kts | 89° |
| 2026-05-08 11:08 | 36.85192 | 10.19257 | 4733 ft | 252 kts | 81° |
| 2026-05-08 11:08 | 36.85706 | 10.21300 | 4445 ft | 249 kts | 61° |
| 2026-05-08 11:09 | 36.86796 | 10.22961 | 4105 ft | 247 kts | 37° |
| 2026-05-08 11:09 | 36.88322 | 10.23901 | 3737 ft | 245 kts | 15° |
| 2026-05-08 11:09 | 36.89982 | 10.24379 | 3376 ft | 244 kts | 10° |
| 2026-05-08 11:09 | 36.91655 | 10.24759 | 3036 ft | 243 kts | 9° |
| 2026-05-08 11:10 | 36.93303 | 10.25129 | 2704 ft | 242 kts | 9° |
| 2026-05-08 11:10 | 36.94963 | 10.25513 | 2364 ft | 242 kts | 10° |
| 2026-05-08 11:10 | 36.96632 | 10.25911 | 2070 ft | 247 kts | 10° |
| 2026-05-08 11:10 | 36.98304 | 10.26318 | 1990 ft | 235 kts | 11° |
| 2026-05-08 11:11 | 36.99839 | 10.26653 | 1985 ft | 213 kts | 4° |
| 2026-05-08 11:11 | 37.01223 | 10.26495 | 2011 ft | 192 kts | 340° |
| 2026-05-08 11:11 | 37.02337 | 10.25627 | 2004 ft | 188 kts | 313° |
| 2026-05-08 11:11 | 37.02995 | 10.24258 | 2001 ft | 187 kts | 287° |
| 2026-05-08 11:12 | 37.03097 | 10.22646 | 2000 ft | 186 kts | 261° |
| 2026-05-08 11:12 | 37.02630 | 10.21163 | 2000 ft | 187 kts | 235° |
| 2026-05-08 11:12 | 37.01677 | 10.20066 | 1999 ft | 187 kts | 209° |
| 2026-05-08 11:12 | 37.00438 | 10.19600 | 2001 ft | 188 kts | 183° |
| 2026-05-08 11:13 | 36.99153 | 10.19866 | 2020 ft | 187 kts | 158° |
| 2026-05-08 11:13 | 36.98116 | 10.20776 | 1989 ft | 177 kts | 130° |
| 2026-05-08 11:13 | 36.97522 | 10.22025 | 1974 ft | 158 kts | 111° |
| 2026-05-08 11:13 | 36.97180 | 10.23261 | 1987 ft | 149 kts | 107° |
| 2026-05-08 11:14 | 36.96834 | 10.24484 | 1991 ft | 149 kts | 118° |
| 2026-05-08 11:14 | 36.96111 | 10.25374 | 1867 ft | 147 kts | 159° |
| 2026-05-08 11:14 | 36.95128 | 10.25471 | 1684 ft | 146 kts | 186° |
| 2026-05-08 11:14 | 36.94121 | 10.25294 | 1328 ft | 146 kts | 190° |
| 2026-05-08 11:15 | 36.93128 | 10.24996 | 995 ft | 148 kts | 199° |
| 2026-05-08 11:15 | 36.92154 | 10.24634 | 754 ft | 144 kts | 194° |
| 2026-05-08 11:15 | 36.91155 | 10.24385 | 589 ft | 154 kts | 189° |
| 2026-05-08 11:15 | 36.90110 | 10.24099 | 532 ft | 153 kts | 194° |
| 2026-05-08 11:16 | 36.89062 | 10.23790 | 414 ft | 153 kts | 193° |
| 2026-05-08 11:16 | 36.88040 | 10.23510 | 324 ft | 148 kts | 193° |
| 2026-05-08 11:16 | 36.87031 | 10.23217 | 148 ft | 148 kts | 193° |
| 2026-05-08 11:16 | 36.86066 | 10.22982 | 45 ft | 138 kts | 194° |
| 2026-05-08 11:17 | 36.85184 | 10.22733 | 31 ft | 113 kts | 193° |
| 2026-05-08 11:17 | 36.84619 | 10.22562 | 28 ft | 55 kts | 193° |
| 2026-05-08 11:17 | 36.84317 | 10.22488 | 25 ft | 36 kts | 189° |
| 2026-05-08 11:17 | 36.84178 | 10.22501 | 24 ft | 7 kts | 89° |
| 2026-05-08 11:18 | 36.84178 | 10.22506 | 24 ft | 3 kts | 89° |
| 2026-05-08 11:18 | 36.84178 | 10.22542 | 25 ft | 0 kts | 90° |